createdAt,value
2023-05-24T00:02:44.703Z,23.11
2023-05-24T00:05:47.923Z,23.10
2023-05-24T00:08:50.743Z,23.14
2023-05-24T00:11:54.868Z,23.14
2023-05-24T00:14:57.644Z,23.16
2023-05-24T00:18:00.491Z,23.15
2023-05-24T00:21:03.291Z,23.15
2023-05-24T00:24:06.589Z,23.15
2023-05-24T00:27:11.962Z,23.15
2023-05-24T00:30:14.824Z,23.17
2023-05-24T00:33:17.626Z,23.16
2023-05-24T00:36:20.410Z,23.14
2023-05-24T00:39:23.158Z,23.15
2023-05-24T00:42:27.221Z,23.15
2023-05-24T00:45:32.386Z,23.17
2023-05-24T00:48:36.524Z,23.17
2023-05-24T00:51:39.437Z,23.17
2023-05-24T00:54:42.299Z,23.19
2023-05-24T00:57:46.400Z,23.18
2023-05-24T01:00:52.348Z,23.17
2023-05-24T01:03:55.267Z,23.18
2023-05-24T01:07:05.715Z,23.19
2023-05-24T01:10:11.370Z,23.20
2023-05-24T01:13:21.972Z,23.19
2023-05-24T01:16:27.189Z,23.21
2023-05-24T01:19:43.301Z,23.21
2023-05-24T01:23:15.659Z,23.23
2023-05-24T01:26:26.457Z,23.21
2023-05-24T01:29:33.418Z,23.21
2023-05-24T01:32:36.339Z,23.21
2023-05-24T01:35:41.334Z,23.22
2023-05-24T01:38:44.750Z,23.19
2023-05-24T01:41:51.979Z,23.19
2023-05-24T01:45:02.588Z,23.20
2023-05-24T01:48:10.922Z,23.20
2023-05-24T01:51:17.139Z,23.17
2023-05-24T01:54:21.868Z,23.19
2023-05-24T01:57:26.214Z,23.20
2023-05-24T02:00:32.302Z,23.18
2023-05-24T02:03:35.237Z,23.20
2023-05-24T02:06:38.257Z,23.21
2023-05-24T02:09:41.042Z,23.21
2023-05-24T02:12:43.800Z,23.22
2023-05-24T02:15:48.181Z,23.20
2023-05-24T02:18:50.955Z,23.23
2023-05-24T02:21:54.599Z,21.43
2023-05-24T02:24:57.851Z,21.11
2023-05-24T02:28:00.643Z,22.55
2023-05-24T02:31:04.979Z,23.06
2023-05-24T02:34:07.794Z,23.16
2023-05-24T02:37:10.510Z,23.22
2023-05-24T02:40:13.709Z,23.22
2023-05-24T02:43:16.486Z,23.21
2023-05-24T02:46:20.718Z,23.25
2023-05-24T02:49:23.575Z,23.25
2023-05-24T02:52:26.813Z,23.27
2023-05-24T02:55:29.878Z,23.27
2023-05-24T02:58:32.581Z,23.28
2023-05-24T03:01:36.823Z,23.29
2023-05-24T03:04:39.617Z,23.29
2023-05-24T03:07:42.466Z,23.30
2023-05-24T03:10:45.381Z,23.33
2023-05-24T03:13:48.150Z,23.34
2023-05-24T03:16:52.340Z,23.35
2023-05-24T03:19:55.123Z,23.36
2023-05-24T03:22:57.986Z,23.39
2023-05-24T03:26:00.743Z,23.38
2023-05-24T03:29:03.569Z,23.41
2023-05-24T03:32:07.927Z,23.43
2023-05-24T03:35:12.145Z,23.43
2023-05-24T03:38:15.036Z,23.44
2023-05-24T03:41:17.731Z,23.45
2023-05-24T03:44:20.471Z,23.45
2023-05-24T03:47:24.587Z,23.44
2023-05-24T03:50:27.338Z,23.44
2023-05-24T03:53:30.176Z,23.44
2023-05-24T03:56:32.891Z,23.45
2023-05-24T03:59:35.748Z,23.47
2023-05-24T04:02:40.159Z,23.50
2023-05-24T04:05:43.036Z,23.52
2023-05-24T04:08:46.114Z,23.53
2023-05-24T04:11:48.870Z,23.55
2023-05-24T04:14:51.892Z,23.58
2023-05-24T04:17:56.190Z,23.58
2023-05-24T04:20:59.135Z,23.60
2023-05-24T04:24:03.434Z,23.60
2023-05-24T04:27:07.314Z,23.62
2023-05-24T04:30:10.592Z,23.66
2023-05-24T04:33:14.995Z,23.67
2023-05-24T04:36:18.500Z,23.68
2023-05-24T04:39:21.284Z,23.70
2023-05-24T04:42:24.066Z,23.69
2023-05-24T04:45:26.870Z,23.70
2023-05-24T04:48:31.180Z,23.72
2023-05-24T04:51:33.976Z,23.74
2023-05-24T04:54:36.744Z,23.78
2023-05-24T04:57:39.498Z,23.82
2023-05-24T05:00:42.534Z,23.82
2023-05-24T05:03:46.839Z,23.87
2023-05-24T05:06:50.072Z,23.87
2023-05-24T05:09:53.138Z,23.90
2023-05-24T05:12:55.935Z,23.90
2023-05-24T05:15:58.729Z,23.94
2023-05-24T05:19:04.675Z,23.96
2023-05-24T05:22:07.596Z,23.98
2023-05-24T05:25:10.611Z,23.98
2023-05-24T05:28:13.292Z,24.03
2023-05-24T05:31:16.012Z,24.08
2023-05-24T05:34:21.304Z,24.06
2023-05-24T05:37:24.211Z,24.11
2023-05-24T05:40:26.982Z,24.15
2023-05-24T05:43:30.157Z,24.11
2023-05-24T05:46:32.975Z,24.14
2023-05-24T05:49:37.270Z,24.17
2023-05-24T05:52:40.005Z,24.17
2023-05-24T05:55:42.896Z,24.22
2023-05-24T05:58:45.666Z,24.17
2023-05-24T06:01:49.267Z,24.06
2023-05-24T06:04:53.526Z,23.49
2023-05-24T06:07:56.393Z,23.32
2023-05-24T06:10:59.336Z,23.78
2023-05-24T06:14:02.687Z,23.53
2023-05-24T06:17:06.781Z,23.28
2023-05-24T06:20:15.560Z,23.94
2023-05-24T06:23:18.444Z,24.20
2023-05-24T06:26:22.392Z,24.23
2023-05-24T06:29:25.466Z,24.27
2023-05-24T06:32:28.259Z,24.29
2023-05-24T06:35:32.410Z,24.29
2023-05-24T06:38:36.029Z,24.30
2023-05-24T06:41:39.113Z,24.32
2023-05-24T06:44:41.914Z,24.32
2023-05-24T06:47:44.873Z,24.33
2023-05-24T06:50:49.296Z,24.29
2023-05-24T06:53:52.317Z,24.34
2023-05-24T06:56:55.942Z,24.38
2023-05-24T06:59:58.851Z,24.34
2023-05-24T07:03:01.766Z,24.35
2023-05-24T07:06:06.415Z,24.39
2023-05-24T07:09:10.562Z,24.37
2023-05-24T07:12:13.482Z,24.36
2023-05-24T07:15:16.377Z,24.37
2023-05-24T07:18:19.336Z,24.34
2023-05-24T07:21:23.617Z,24.36
2023-05-24T07:24:26.499Z,24.36
2023-05-24T07:27:29.293Z,24.41
2023-05-24T07:30:46.625Z,24.39
2023-05-24T07:33:49.543Z,24.37
2023-05-24T07:36:55.834Z,24.41
2023-05-24T07:39:58.788Z,24.40
2023-05-24T07:43:03.788Z,24.38
2023-05-24T07:46:06.968Z,24.39
2023-05-24T07:49:09.799Z,24.39
2023-05-24T07:52:14.441Z,24.40
2023-05-24T07:55:17.146Z,24.41
2023-05-24T07:58:20.067Z,24.40
2023-05-24T08:01:22.872Z,24.39
2023-05-24T08:04:25.637Z,24.34
2023-05-24T08:07:30.180Z,24.27
2023-05-24T08:10:32.965Z,24.26
2023-05-24T08:13:35.803Z,24.28
2023-05-24T08:16:38.560Z,24.29
2023-05-24T08:19:41.393Z,24.26
2023-05-24T09:39:32.135Z,23.78
2023-05-24T09:42:34.875Z,23.77
2023-05-24T09:45:42.910Z,23.79
2023-05-24T09:48:56.446Z,23.82
2023-05-24T09:51:59.489Z,23.82
2023-05-24T09:55:12.671Z,23.81
2023-05-24T09:58:16.898Z,23.82
2023-05-24T10:01:20.932Z,23.81
2023-05-24T10:04:33.434Z,23.83
2023-05-24T10:07:36.439Z,23.85
2023-05-24T10:10:40.781Z,23.85
2023-05-24T10:13:43.735Z,23.85
2023-05-24T10:16:46.599Z,23.84
2023-05-24T10:19:49.755Z,23.84
2023-05-24T10:22:54.017Z,23.88
2023-05-24T10:26:04.351Z,23.73
2023-05-24T10:29:09.002Z,23.39
2023-05-24T10:32:12.412Z,23.60
2023-05-24T10:35:16.372Z,23.66
2023-05-24T10:38:21.489Z,23.60
2023-05-24T10:41:27.117Z,23.58
2023-05-24T10:44:30.431Z,23.86
2023-05-24T10:47:33.273Z,23.99
2023-05-24T10:50:36.181Z,24.06
2023-05-24T10:53:40.978Z,24.02
2023-05-24T10:56:46.197Z,23.93
2023-05-24T10:59:48.970Z,23.98
2023-05-24T11:02:52.384Z,24.19
2023-05-24T11:05:55.824Z,24.24
2023-05-24T11:09:01.279Z,24.18
2023-05-24T11:12:08.434Z,24.13
2023-05-24T11:15:12.019Z,24.32
2023-05-24T11:18:15.565Z,24.29
2023-05-24T11:21:18.639Z,24.48
2023-05-24T11:24:22.307Z,24.42
2023-05-24T11:27:26.977Z,24.25
2023-05-24T11:30:29.819Z,24.41
2023-05-24T11:33:33.343Z,24.25
2023-05-24T11:36:37.210Z,24.36
2023-05-24T11:39:40.412Z,24.24
2023-05-24T11:42:44.805Z,24.12
2023-05-24T11:45:49.326Z,24.02
2023-05-24T11:48:57.471Z,24.21
2023-05-24T11:52:01.031Z,24.22
2023-05-24T11:55:04.322Z,24.20
2023-05-24T11:58:20.317Z,24.09
2023-05-24T12:01:27.442Z,24.10
2023-05-24T12:04:30.665Z,24.12
2023-05-24T12:07:33.525Z,24.17
2023-05-24T12:10:36.731Z,24.11
2023-05-24T12:13:41.234Z,24.02
2023-05-24T12:16:44.376Z,24.08
2023-05-24T12:19:49.754Z,24.36
2023-05-24T12:22:53.322Z,24.48
2023-05-24T12:25:59.229Z,24.46
2023-05-24T12:29:04.197Z,24.46
2023-05-24T12:32:12.132Z,24.45
2023-05-24T12:35:15.213Z,24.47
2023-05-24T12:38:25.448Z,24.44
2023-05-24T12:41:29.966Z,24.46
2023-05-24T12:44:35.492Z,24.47
2023-05-24T12:47:38.286Z,24.45
2023-05-24T12:50:41.295Z,24.43
2023-05-24T12:53:44.156Z,24.44
2023-05-24T12:56:47.398Z,24.47
2023-05-24T12:59:51.563Z,24.46
2023-05-24T13:02:56.323Z,24.47
2023-05-24T13:06:00.073Z,24.55
2023-05-24T13:09:02.978Z,24.53
2023-05-24T13:12:06.214Z,24.55
2023-05-24T13:15:10.915Z,24.55
2023-05-24T13:18:13.968Z,24.53
2023-05-24T13:21:17.204Z,24.64
2023-05-24T13:24:20.385Z,24.57
2023-05-24T13:27:23.331Z,24.59
2023-05-24T13:30:28.476Z,24.57
2023-05-24T13:33:34.250Z,24.52
2023-05-24T13:36:38.008Z,24.45
2023-05-24T13:39:46.596Z,24.44
2023-05-24T13:42:49.356Z,24.39
2023-05-24T13:45:53.638Z,24.39
2023-05-24T13:48:57.011Z,24.39
2023-05-24T13:51:59.780Z,24.41
2023-05-24T13:55:04.349Z,24.43
2023-05-24T13:58:07.163Z,24.38
2023-05-24T14:01:11.905Z,24.35
2023-05-24T14:04:14.727Z,24.44
2023-05-24T14:07:17.550Z,24.43
2023-05-24T14:10:21.603Z,24.46
2023-05-24T14:14:07.521Z,24.42
2023-05-24T14:16:52.264Z,24.47
2023-05-24T14:19:55.093Z,24.43
2023-05-24T14:22:58.647Z,24.45
2023-05-24T14:26:01.469Z,24.37
2023-05-24T14:29:04.253Z,24.25
2023-05-24T14:32:09.743Z,24.35
2023-05-24T14:35:12.508Z,24.39
2023-05-24T14:38:15.444Z,24.34
2023-05-24T14:41:18.358Z,24.37
2023-05-24T14:44:21.189Z,24.44
2023-05-24T14:47:25.405Z,24.42
2023-05-24T14:50:28.186Z,24.39
2023-05-24T14:53:30.933Z,24.38
2023-05-24T14:56:34.561Z,24.33
2023-05-24T14:59:37.407Z,24.39
2023-05-24T15:02:41.624Z,24.29
2023-05-24T15:05:44.657Z,24.41
2023-05-24T15:08:47.524Z,24.45
2023-05-24T15:11:50.424Z,24.44
2023-05-24T15:14:53.286Z,24.40
2023-05-24T15:17:59.627Z,24.42
2023-05-24T15:21:02.501Z,24.42
2023-05-24T15:24:05.376Z,24.48
2023-05-24T15:27:08.235Z,24.46
2023-05-24T15:30:11.322Z,24.49
2023-05-24T15:33:17.083Z,24.45
2023-05-24T15:36:19.995Z,24.39
2023-05-24T15:39:22.837Z,24.42
2023-05-24T15:42:25.729Z,24.36
2023-05-24T15:45:28.497Z,24.35
2023-05-24T15:48:32.660Z,24.29
2023-05-24T15:52:03.036Z,24.26
2023-05-24T15:54:58.093Z,24.37
2023-05-24T15:58:01.009Z,24.36
2023-05-24T16:01:03.709Z,24.39
2023-05-24T16:04:07.964Z,24.38
2023-05-24T16:07:10.853Z,24.32
2023-05-24T16:10:14.195Z,24.41
2023-05-24T16:13:16.929Z,24.33
2023-05-24T16:16:23.457Z,24.35
2023-05-24T16:19:27.683Z,24.33
2023-05-24T16:22:30.497Z,24.38
2023-05-24T16:25:33.257Z,24.37
2023-05-24T16:28:36.028Z,24.36
2023-05-24T16:31:38.893Z,24.36
2023-05-24T16:34:56.166Z,24.38
2023-05-24T16:38:00.207Z,24.38
2023-05-24T16:41:03.002Z,24.39
2023-05-24T16:44:05.818Z,24.38
2023-05-24T16:47:08.623Z,24.35
2023-05-24T16:50:15.195Z,24.35
2023-05-24T16:53:18.182Z,24.38
2023-05-24T16:56:20.927Z,24.37
2023-05-24T16:59:23.789Z,24.28
2023-05-24T17:02:26.782Z,22.63
2023-05-24T17:05:31.045Z,22.32
2023-05-24T17:08:35.212Z,22.27
2023-05-24T17:11:38.088Z,22.31
2023-05-24T17:14:41.253Z,22.23
2023-05-24T17:17:44.025Z,22.12
2023-05-24T17:20:48.284Z,22.09
2023-05-24T17:23:51.085Z,22.13
2023-05-24T17:26:53.895Z,22.04
2023-05-24T17:29:57.098Z,22.05
2023-05-24T17:32:59.840Z,22.13
2023-05-24T17:36:06.189Z,21.96
2023-05-24T17:39:08.989Z,21.99
2023-05-24T17:42:11.746Z,21.93
2023-05-24T17:45:14.514Z,21.93
2023-05-24T17:48:17.562Z,21.96
2023-05-24T17:51:21.706Z,22.22
2023-05-24T17:54:24.526Z,22.33
2023-05-24T17:57:27.691Z,22.58
2023-05-24T18:00:30.421Z,22.11
2023-05-24T18:03:33.672Z,22.35
2023-05-24T18:06:38.623Z,22.04
2023-05-24T18:09:41.424Z,22.52
2023-05-24T18:12:44.203Z,22.65
2023-05-24T18:15:47.011Z,23.08
2023-05-24T18:18:49.808Z,22.95
2023-05-24T18:21:54.318Z,22.39
2023-05-24T18:28:00.076Z,22.60
2023-05-24T18:31:02.854Z,22.48
2023-05-24T18:34:05.692Z,22.70
2023-05-24T18:37:09.823Z,22.98
2023-05-24T18:40:14.143Z,22.82
2023-05-24T18:43:16.871Z,22.53
2023-05-24T18:46:19.783Z,22.04
2023-05-24T18:49:23.980Z,21.93
2023-05-24T18:52:28.321Z,22.02
2023-05-24T18:55:31.083Z,21.89
2023-05-24T18:58:34.977Z,21.85
2023-05-24T19:01:37.741Z,21.85
2023-05-24T19:04:40.505Z,21.93
2023-05-24T19:07:44.657Z,21.83
2023-05-24T19:10:47.401Z,21.80
2023-05-24T19:13:51.183Z,21.68
2023-05-24T19:16:53.960Z,21.91
2023-05-24T19:19:56.795Z,21.69
2023-05-24T19:23:00.990Z,21.52
2023-05-24T19:26:03.863Z,21.55
2023-05-24T19:29:06.657Z,21.44
2023-05-24T19:32:10.590Z,21.63
2023-05-24T19:35:13.429Z,22.13
2023-05-24T19:38:18.098Z,22.67
2023-05-24T19:41:20.888Z,22.36
2023-05-24T19:44:23.745Z,22.73
2023-05-24T19:47:26.489Z,22.88
2023-05-24T19:50:31.303Z,22.32
2023-05-24T19:53:35.642Z,21.83
2023-05-24T19:56:38.468Z,21.58
2023-05-24T19:59:41.228Z,21.69
2023-05-24T20:02:44.028Z,21.65
2023-05-24T20:05:46.762Z,21.62
2023-05-24T20:08:51.159Z,21.53
2023-05-24T20:11:53.867Z,21.65
2023-05-24T20:14:56.583Z,21.64
2023-05-24T20:17:59.378Z,21.54
2023-05-24T20:21:02.344Z,21.51
2023-05-24T20:24:06.761Z,21.52
2023-05-24T20:27:09.612Z,21.54
2023-05-24T20:30:12.834Z,21.61
2023-05-24T20:33:15.650Z,21.58
2023-05-24T20:36:18.673Z,21.53
2023-05-24T20:39:22.805Z,21.45
2023-05-24T20:42:25.544Z,21.34
2023-05-24T20:45:28.351Z,21.34
2023-05-24T20:48:31.167Z,21.53
2023-05-24T20:51:33.963Z,21.55
2023-05-24T20:54:38.027Z,21.60
2023-05-24T20:57:40.806Z,21.61
2023-05-24T21:00:43.709Z,21.49
2023-05-24T21:03:46.511Z,21.40
2023-05-24T21:06:50.450Z,21.41
2023-05-24T21:09:54.615Z,21.44
2023-05-24T21:12:57.393Z,21.30
2023-05-24T21:16:00.193Z,21.28
2023-05-24T21:19:02.975Z,21.34
2023-05-24T21:22:05.929Z,21.27
2023-05-24T21:25:10.823Z,21.41
2023-05-24T21:28:14.013Z,21.39
2023-05-24T21:31:17.197Z,21.41
2023-05-24T21:34:19.982Z,21.55
2023-05-24T21:37:22.722Z,21.54
2023-05-24T21:40:27.072Z,21.37
2023-05-24T21:43:29.780Z,21.28
2023-05-24T21:46:33.747Z,21.19
2023-05-24T21:49:36.578Z,21.18
2023-05-24T21:52:39.619Z,21.33
2023-05-24T21:55:45.305Z,21.41
2023-05-24T21:58:48.333Z,21.30
2023-05-24T22:01:51.333Z,21.35
2023-05-24T22:04:54.202Z,21.29
2023-05-24T22:07:57.075Z,21.29
2023-05-24T22:11:01.542Z,21.27
2023-05-24T22:14:04.396Z,21.31
2023-05-24T22:17:07.184Z,21.20
2023-05-24T22:20:10.683Z,21.29
2023-05-24T22:23:14.419Z,21.24
2023-05-24T22:26:18.573Z,21.13
2023-05-24T22:29:21.304Z,21.27
2023-05-24T22:32:24.218Z,21.33
2023-05-24T22:35:27.015Z,21.42
2023-05-24T22:38:29.856Z,21.27
2023-05-24T22:41:33.995Z,21.22
2023-05-24T22:44:36.774Z,21.30
2023-05-24T22:47:40.016Z,21.17
2023-05-24T22:50:43.366Z,21.27
2023-05-24T22:53:46.158Z,21.22
2023-05-24T22:56:50.343Z,21.29
2023-05-24T22:59:53.223Z,21.37
2023-05-24T23:02:56.023Z,21.30
2023-05-24T23:06:03.997Z,21.30
2023-05-24T23:09:06.886Z,21.26
2023-05-24T23:12:12.083Z,21.27
2023-05-24T23:15:16.799Z,21.20
2023-05-24T23:18:22.158Z,21.21
2023-05-24T23:21:25.733Z,21.16
2023-05-24T23:24:28.481Z,21.10
2023-05-24T23:27:32.583Z,22.57
2023-05-24T23:30:35.432Z,23.00
2023-05-24T23:33:38.150Z,23.12
2023-05-24T23:36:40.849Z,23.18
2023-05-24T23:39:43.629Z,23.21
2023-05-24T23:42:47.747Z,23.24
2023-05-24T23:45:50.530Z,23.26
2023-05-24T23:48:53.299Z,23.29
2023-05-24T23:51:56.018Z,23.29
2023-05-24T23:54:58.982Z,23.29
2023-05-24T23:58:03.695Z,23.33
